sensor_id;sensor_type;location;lat;lon;timestamp;temperature;humidity
10541;DHT22;5318;50.844;4.272;2022-12-18T00:00:04;1.50;99.90
10541;DHT22;5318;50.844;4.272;2022-12-18T00:02:41;1.40;99.90
10541;DHT22;5318;50.844;4.272;2022-12-18T00:05:17;1.40;99.90
10541;DHT22;5318;50.844;4.272;2022-12-18T00:07:54;1.40;99.90
10541;DHT22;5318;50.844;4.272;2022-12-18T00:10:31;1.40;99.90
10541;DHT22;5318;50.844;4.272;2022-12-18T00:13:07;1.10;99.90
10541;DHT22;5318;50.844;4.272;2022-12-18T00:15:44;1.00;99.90
10541;DHT22;5318;50.844;4.272;2022-12-18T00:18:21;0.90;99.90
10541;DHT22;5318;50.844;4.272;2022-12-18T00:21:02;0.90;99.90
10541;DHT22;5318;50.844;4.272;2022-12-18T00:23:38;0.90;99.90
10541;DHT22;5318;50.844;4.272;2022-12-18T00:26:16;0.90;99.90
10541;DHT22;5318;50.844;4.272;2022-12-18T00:28:51;0.90;99.90
10541;DHT22;5318;50.844;4.272;2022-12-18T00:31:28;0.80;99.90
10541;DHT22;5318;50.844;4.272;2022-12-18T00:34:04;0.80;99.90
10541;DHT22;5318;50.844;4.272;2022-12-18T00:36:41;0.70;99.90
10541;DHT22;5318;50.844;4.272;2022-12-18T00:39:17;0.50;99.90
10541;DHT22;5318;50.844;4.272;2022-12-18T00:41:54;0.20;99.90
10541;DHT22;5318;50.844;4.272;2022-12-18T00:44:31;0.70;99.90
10541;DHT22;5318;50.844;4.272;2022-12-18T00:47:08;0.70;99.90
10541;DHT22;5318;50.844;4.272;2022-12-18T00:49:44;0.70;99.90
10541;DHT22;5318;50.844;4.272;2022-12-18T00:52:21;0.80;99.90
10541;DHT22;5318;50.844;4.272;2022-12-18T00:54:58;0.80;99.90
10541;DHT22;5318;50.844;4.272;2022-12-18T00:57:34;0.90;99.90
10541;DHT22;5318;50.844;4.272;2022-12-18T01:00:12;0.80;99.90
10541;DHT22;5318;50.844;4.272;2022-12-18T01:02:48;0.50;99.90
10541;DHT22;5318;50.844;4.272;2022-12-18T01:05:25;0.50;99.90
10541;DHT22;5318;50.844;4.272;2022-12-18T01:08:01;0.60;99.90
10541;DHT22;5318;50.844;4.272;2022-12-18T01:10:41;0.70;99.90
10541;DHT22;5318;50.844;4.272;2022-12-18T01:13:14;0.50;99.90
10541;DHT22;5318;50.844;4.272;2022-12-18T01:15:51;0.60;99.90
10541;DHT22;5318;50.844;4.272;2022-12-18T01:18:28;0.70;99.90
10541;DHT22;5318;50.844;4.272;2022-12-18T01:21:11;0.80;99.90
10541;DHT22;5318;50.844;4.272;2022-12-18T01:23:50;0.60;99.90
10541;DHT22;5318;50.844;4.272;2022-12-18T01:26:23;0.60;99.90
10541;DHT22;5318;50.844;4.272;2022-12-18T01:29:00;0.70;99.90
10541;DHT22;5318;50.844;4.272;2022-12-18T01:31:36;0.60;99.90
10541;DHT22;5318;50.844;4.272;2022-12-18T01:34:13;0.30;99.90
10541;DHT22;5318;50.844;4.272;2022-12-18T01:36:50;0.50;99.90
10541;DHT22;5318;50.844;4.272;2022-12-18T01:39:26;0.60;99.90
10541;DHT22;5318;50.844;4.272;2022-12-18T01:42:05;0.70;99.90
10541;DHT22;5318;50.844;4.272;2022-12-18T01:47:45;0.80;99.90
10541;DHT22;5318;50.844;4.272;2022-12-18T01:53:22;0.60;99.90
10541;DHT22;5318;50.844;4.272;2022-12-18T01:55:59;0.40;99.90
10541;DHT22;5318;50.844;4.272;2022-12-18T02:01:18;0.40;99.90
10541;DHT22;5318;50.844;4.272;2022-12-18T02:03:54;0.60;99.90
10541;DHT22;5318;50.844;4.272;2022-12-18T02:06:34;0.60;99.90
10541;DHT22;5318;50.844;4.272;2022-12-18T02:09:13;0.70;99.90
10541;DHT22;5318;50.844;4.272;2022-12-18T02:11:59;0.60;99.90
10541;DHT22;5318;50.844;4.272;2022-12-18T02:14:40;0.50;99.90
10541;DHT22;5318;50.844;4.272;2022-12-18T02:26:15;0.50;99.90
10541;DHT22;5318;50.844;4.272;2022-12-18T02:29:10;0.60;99.90
10541;DHT22;5318;50.844;4.272;2022-12-18T02:31:43;0.50;99.90
10541;DHT22;5318;50.844;4.272;2022-12-18T02:34:19;0.50;99.90
10541;DHT22;5318;50.844;4.272;2022-12-18T02:36:55;0.50;99.90
10541;DHT22;5318;50.844;4.272;2022-12-18T02:39:32;0.60;99.90
10541;DHT22;5318;50.844;4.272;2022-12-18T02:42:08;0.60;99.90
10541;DHT22;5318;50.844;4.272;2022-12-18T02:44:46;0.60;99.90
10541;DHT22;5318;50.844;4.272;2022-12-18T02:47:22;0.50;99.90
10541;DHT22;5318;50.844;4.272;2022-12-18T02:55:36;0.50;99.90
10541;DHT22;5318;50.844;4.272;2022-12-18T02:58:28;0.40;99.90
10541;DHT22;5318;50.844;4.272;2022-12-18T03:01:22;0.30;99.90
10541;DHT22;5318;50.844;4.272;2022-12-18T03:03:59;0.20;99.90
10541;DHT22;5318;50.844;4.272;2022-12-18T03:06:43;0.10;99.90
10541;DHT22;5318;50.844;4.272;2022-12-18T03:09:19;0.00;99.90
10541;DHT22;5318;50.844;4.272;2022-12-18T03:11:58;0.00;99.90
10541;DHT22;5318;50.844;4.272;2022-12-18T03:14:33;0.00;99.90
10541;DHT22;5318;50.844;4.272;2022-12-18T03:17:10;0.00;99.90
10541;DHT22;5318;50.844;4.272;2022-12-18T03:19:46;0.00;99.90
10541;DHT22;5318;50.844;4.272;2022-12-18T03:22:23;0.00;99.90
10541;DHT22;5318;50.844;4.272;2022-12-18T03:25:00;0.10;99.90
10541;DHT22;5318;50.844;4.272;2022-12-18T03:27:36;0.10;99.90
10541;DHT22;5318;50.844;4.272;2022-12-18T03:30:12;0.00;99.90
10541;DHT22;5318;50.844;4.272;2022-12-18T03:33:08;0.00;99.90
10541;DHT22;5318;50.844;4.272;2022-12-18T03:35:41;-0.20;99.90
10541;DHT22;5318;50.844;4.272;2022-12-18T03:38:17;-0.40;99.90
10541;DHT22;5318;50.844;4.272;2022-12-18T03:41:47;-0.20;99.90
10541;DHT22;5318;50.844;4.272;2022-12-18T03:43:42;-0.10;99.90
10541;DHT22;5318;50.844;4.272;2022-12-18T03:46:26;-0.10;99.90
10541;DHT22;5318;50.844;4.272;2022-12-18T03:49:02;-0.10;99.90
10541;DHT22;5318;50.844;4.272;2022-12-18T03:54:14;-0.10;99.90
10541;DHT22;5318;50.844;4.272;2022-12-18T03:56:53;-0.20;99.90
10541;DHT22;5318;50.844;4.272;2022-12-18T03:59:27;-0.30;99.90
10541;DHT22;5318;50.844;4.272;2022-12-18T04:02:05;-0.20;99.90
10541;DHT22;5318;50.844;4.272;2022-12-18T04:04:41;-0.30;99.90
10541;DHT22;5318;50.844;4.272;2022-12-18T04:07:18;-0.20;99.90
10541;DHT22;5318;50.844;4.272;2022-12-18T04:09:55;-0.10;99.90
10541;DHT22;5318;50.844;4.272;2022-12-18T04:12:31;-0.30;99.90
10541;DHT22;5318;50.844;4.272;2022-12-18T04:15:08;-0.50;99.90
10541;DHT22;5318;50.844;4.272;2022-12-18T04:17:48;-0.20;99.90
10541;DHT22;5318;50.844;4.272;2022-12-18T04:20:24;-0.30;99.90
10541;DHT22;5318;50.844;4.272;2022-12-18T04:23:01;0.00;99.90
10541;DHT22;5318;50.844;4.272;2022-12-18T04:25:37;0.00;99.90
10541;DHT22;5318;50.844;4.272;2022-12-18T04:28:14;0.10;99.90
10541;DHT22;5318;50.844;4.272;2022-12-18T04:30:50;0.10;99.90
10541;DHT22;5318;50.844;4.272;2022-12-18T04:33:27;0.10;99.90
10541;DHT22;5318;50.844;4.272;2022-12-18T04:36:04;0.10;99.90
10541;DHT22;5318;50.844;4.272;2022-12-18T04:38:40;-0.10;99.90
10541;DHT22;5318;50.844;4.272;2022-12-18T04:41:17;-0.30;99.90
10541;DHT22;5318;50.844;4.272;2022-12-18T04:43:54;0.10;99.90
10541;DHT22;5318;50.844;4.272;2022-12-18T04:46:31;0.10;99.90
10541;DHT22;5318;50.844;4.272;2022-12-18T04:49:07;0.20;99.90
10541;DHT22;5318;50.844;4.272;2022-12-18T04:51:44;0.30;99.90
10541;DHT22;5318;50.844;4.272;2022-12-18T04:54:20;0.20;99.90
10541;DHT22;5318;50.844;4.272;2022-12-18T04:56:57;0.00;99.90
10541;DHT22;5318;50.844;4.272;2022-12-18T04:59:34;0.00;99.90
10541;DHT22;5318;50.844;4.272;2022-12-18T05:02:10;0.00;99.90
10541;DHT22;5318;50.844;4.272;2022-12-18T05:04:47;-0.10;99.90
10541;DHT22;5318;50.844;4.272;2022-12-18T05:07:23;-0.30;99.90
10541;DHT22;5318;50.844;4.272;2022-12-18T05:10:00;-0.50;99.90
10541;DHT22;5318;50.844;4.272;2022-12-18T05:12:36;-0.60;99.90
10541;DHT22;5318;50.844;4.272;2022-12-18T05:15:14;-0.30;99.90
10541;DHT22;5318;50.844;4.272;2022-12-18T05:17:50;-0.30;99.90
10541;DHT22;5318;50.844;4.272;2022-12-18T05:20:27;-0.20;99.90
10541;DHT22;5318;50.844;4.272;2022-12-18T05:23:04;-0.30;99.90
10541;DHT22;5318;50.844;4.272;2022-12-18T05:25:40;-0.30;99.90
10541;DHT22;5318;50.844;4.272;2022-12-18T05:28:17;-0.40;99.90
10541;DHT22;5318;50.844;4.272;2022-12-18T05:30:55;-0.40;99.90
10541;DHT22;5318;50.844;4.272;2022-12-18T05:33:32;-0.40;99.90
10541;DHT22;5318;50.844;4.272;2022-12-18T05:36:07;-0.40;99.90
10541;DHT22;5318;50.844;4.272;2022-12-18T05:38:44;-0.40;99.90
10541;DHT22;5318;50.844;4.272;2022-12-18T05:41:21;-0.40;99.90
10541;DHT22;5318;50.844;4.272;2022-12-18T05:43:58;-0.40;99.90
10541;DHT22;5318;50.844;4.272;2022-12-18T05:46:35;-0.40;99.90
10541;DHT22;5318;50.844;4.272;2022-12-18T05:49:12;-0.40;99.90
10541;DHT22;5318;50.844;4.272;2022-12-18T05:51:49;-0.40;99.90
10541;DHT22;5318;50.844;4.272;2022-12-18T05:54:28;-0.50;99.90
10541;DHT22;5318;50.844;4.272;2022-12-18T05:57:08;-0.60;99.90
10541;DHT22;5318;50.844;4.272;2022-12-18T05:59:41;-0.40;99.90
10541;DHT22;5318;50.844;4.272;2022-12-18T06:02:18;-0.40;99.90
10541;DHT22;5318;50.844;4.272;2022-12-18T06:04:54;-0.40;99.90
10541;DHT22;5318;50.844;4.272;2022-12-18T06:07:31;-0.40;99.90
10541;DHT22;5318;50.844;4.272;2022-12-18T06:10:08;-0.40;99.90
10541;DHT22;5318;50.844;4.272;2022-12-18T06:12:44;-0.30;99.90
10541;DHT22;5318;50.844;4.272;2022-12-18T06:15:21;-0.50;99.90
10541;DHT22;5318;50.844;4.272;2022-12-18T06:17:59;-0.30;99.90
10541;DHT22;5318;50.844;4.272;2022-12-18T06:20:35;-0.30;99.90
10541;DHT22;5318;50.844;4.272;2022-12-18T06:23:11;-0.30;99.90
10541;DHT22;5318;50.844;4.272;2022-12-18T06:25:48;-0.20;99.90
10541;DHT22;5318;50.844;4.272;2022-12-18T06:28:24;-0.30;99.90
10541;DHT22;5318;50.844;4.272;2022-12-18T06:31:02;-0.40;99.90
10541;DHT22;5318;50.844;4.272;2022-12-18T06:33:38;-0.20;99.90
10541;DHT22;5318;50.844;4.272;2022-12-18T06:36:14;-0.20;99.90
10541;DHT22;5318;50.844;4.272;2022-12-18T06:38:51;-0.20;99.90
10541;DHT22;5318;50.844;4.272;2022-12-18T06:41:27;-0.20;99.90
10541;DHT22;5318;50.844;4.272;2022-12-18T06:44:05;-0.30;99.90
10541;DHT22;5318;50.844;4.272;2022-12-18T06:46:41;-0.30;99.90
10541;DHT22;5318;50.844;4.272;2022-12-18T06:49:18;-0.40;99.90
10541;DHT22;5318;50.844;4.272;2022-12-18T06:51:54;-0.30;99.90
10541;DHT22;5318;50.844;4.272;2022-12-18T06:54:31;-0.40;99.90
10541;DHT22;5318;50.844;4.272;2022-12-18T06:57:07;-0.50;99.90
10541;DHT22;5318;50.844;4.272;2022-12-18T06:59:44;-0.50;99.90
10541;DHT22;5318;50.844;4.272;2022-12-18T07:02:21;-0.60;99.90
10541;DHT22;5318;50.844;4.272;2022-12-18T07:04:57;-0.70;99.90
10541;DHT22;5318;50.844;4.272;2022-12-18T07:07:34;-0.50;99.90
10541;DHT22;5318;50.844;4.272;2022-12-18T07:10:11;-0.50;99.90
10541;DHT22;5318;50.844;4.272;2022-12-18T07:12:48;-0.50;99.90
10541;DHT22;5318;50.844;4.272;2022-12-18T07:15:25;-0.30;99.90
10541;DHT22;5318;50.844;4.272;2022-12-18T07:18:02;-0.30;99.90
10541;DHT22;5318;50.844;4.272;2022-12-18T07:20:38;-0.30;99.90
10541;DHT22;5318;50.844;4.272;2022-12-18T07:23:15;-0.20;99.90
10541;DHT22;5318;50.844;4.272;2022-12-18T07:25:51;-0.30;99.90
10541;DHT22;5318;50.844;4.272;2022-12-18T07:28:28;-0.20;99.90
10541;DHT22;5318;50.844;4.272;2022-12-18T07:31:05;-0.10;99.90
10541;DHT22;5318;50.844;4.272;2022-12-18T07:33:41;-0.10;99.90
10541;DHT22;5318;50.844;4.272;2022-12-18T07:36:19;-0.20;99.90
10541;DHT22;5318;50.844;4.272;2022-12-18T07:38:55;-0.20;99.90
10541;DHT22;5318;50.844;4.272;2022-12-18T07:41:33;-0.40;99.90
10541;DHT22;5318;50.844;4.272;2022-12-18T07:44:10;-0.40;99.90
10541;DHT22;5318;50.844;4.272;2022-12-18T07:46:46;-0.50;99.90
10541;DHT22;5318;50.844;4.272;2022-12-18T07:49:24;-0.60;99.90
10541;DHT22;5318;50.844;4.272;2022-12-18T07:52:00;-0.60;99.90
10541;DHT22;5318;50.844;4.272;2022-12-18T07:54:37;-0.50;99.90
10541;DHT22;5318;50.844;4.272;2022-12-18T07:57:13;-0.50;99.90
10541;DHT22;5318;50.844;4.272;2022-12-18T07:59:50;-0.50;99.90
10541;DHT22;5318;50.844;4.272;2022-12-18T08:02:27;-0.70;99.90
10541;DHT22;5318;50.844;4.272;2022-12-18T08:05:03;-0.70;99.90
10541;DHT22;5318;50.844;4.272;2022-12-18T08:07:40;-0.70;99.90
10541;DHT22;5318;50.844;4.272;2022-12-18T08:10:17;-0.40;99.90
10541;DHT22;5318;50.844;4.272;2022-12-18T08:12:53;0.00;99.90
10541;DHT22;5318;50.844;4.272;2022-12-18T08:15:30;-0.10;99.90
10541;DHT22;5318;50.844;4.272;2022-12-18T08:18:06;0.10;99.90
10541;DHT22;5318;50.844;4.272;2022-12-18T08:20:43;0.20;99.90
10541;DHT22;5318;50.844;4.272;2022-12-18T08:23:19;0.20;99.90
10541;DHT22;5318;50.844;4.272;2022-12-18T08:25:57;0.40;99.90
10541;DHT22;5318;50.844;4.272;2022-12-18T08:28:33;0.50;99.90
10541;DHT22;5318;50.844;4.272;2022-12-18T08:31:09;0.80;99.90
10541;DHT22;5318;50.844;4.272;2022-12-18T08:33:48;1.00;99.90
10541;DHT22;5318;50.844;4.272;2022-12-18T08:36:24;1.20;99.90
10541;DHT22;5318;50.844;4.272;2022-12-18T08:39:01;1.30;99.90
10541;DHT22;5318;50.844;4.272;2022-12-18T08:41:38;1.30;99.90
10541;DHT22;5318;50.844;4.272;2022-12-18T08:44:16;1.20;99.90
10541;DHT22;5318;50.844;4.272;2022-12-18T08:46:52;1.20;99.90
10541;DHT22;5318;50.844;4.272;2022-12-18T08:49:30;1.10;99.90
10541;DHT22;5318;50.844;4.272;2022-12-18T08:52:06;1.10;99.90
10541;DHT22;5318;50.844;4.272;2022-12-18T08:54:44;1.10;99.90
10541;DHT22;5318;50.844;4.272;2022-12-18T08:57:21;1.10;99.90
10541;DHT22;5318;50.844;4.272;2022-12-18T08:59:58;1.10;99.90
10541;DHT22;5318;50.844;4.272;2022-12-18T09:02:36;1.10;99.90
10541;DHT22;5318;50.844;4.272;2022-12-18T09:05:12;1.20;99.90
10541;DHT22;5318;50.844;4.272;2022-12-18T09:07:49;1.40;99.90
10541;DHT22;5318;50.844;4.272;2022-12-18T09:10:26;1.40;99.90
10541;DHT22;5318;50.844;4.272;2022-12-18T09:13:02;1.40;99.90
10541;DHT22;5318;50.844;4.272;2022-12-18T09:15:46;1.40;99.90
10541;DHT22;5318;50.844;4.272;2022-12-18T09:18:22;1.50;99.90
10541;DHT22;5318;50.844;4.272;2022-12-18T09:20:58;1.50;99.90
10541;DHT22;5318;50.844;4.272;2022-12-18T09:23:34;1.50;99.90
10541;DHT22;5318;50.844;4.272;2022-12-18T09:26:11;1.50;99.90
10541;DHT22;5318;50.844;4.272;2022-12-18T09:28:47;1.60;99.90
10541;DHT22;5318;50.844;4.272;2022-12-18T09:31:24;1.80;99.90
10541;DHT22;5318;50.844;4.272;2022-12-18T09:34:01;1.80;99.90
10541;DHT22;5318;50.844;4.272;2022-12-18T09:36:37;1.80;99.90
10541;DHT22;5318;50.844;4.272;2022-12-18T09:39:14;1.80;99.90
10541;DHT22;5318;50.844;4.272;2022-12-18T09:41:54;1.80;99.90
10541;DHT22;5318;50.844;4.272;2022-12-18T09:44:34;2.00;99.90
10541;DHT22;5318;50.844;4.272;2022-12-18T09:49:47;2.20;99.90
10541;DHT22;5318;50.844;4.272;2022-12-18T09:52:33;2.40;99.90
10541;DHT22;5318;50.844;4.272;2022-12-18T09:55:15;2.40;99.90
10541;DHT22;5318;50.844;4.272;2022-12-18T09:57:49;2.40;99.90
10541;DHT22;5318;50.844;4.272;2022-12-18T10:00:24;2.60;99.90
10541;DHT22;5318;50.844;4.272;2022-12-18T10:03:03;2.60;99.90
10541;DHT22;5318;50.844;4.272;2022-12-18T10:11:47;2.60;99.90
10541;DHT22;5318;50.844;4.272;2022-12-18T10:25:32;2.70;99.90
10541;DHT22;5318;50.844;4.272;2022-12-18T10:28:12;2.70;99.90
10541;DHT22;5318;50.844;4.272;2022-12-18T10:30:48;2.80;99.90
10541;DHT22;5318;50.844;4.272;2022-12-18T10:33:28;2.70;99.90
10541;DHT22;5318;50.844;4.272;2022-12-18T10:36:01;2.80;99.90
10541;DHT22;5318;50.844;4.272;2022-12-18T10:38:38;2.60;99.90
10541;DHT22;5318;50.844;4.272;2022-12-18T10:46:55;3.00;99.90
10541;DHT22;5318;50.844;4.272;2022-12-18T10:49:33;3.00;99.90
10541;DHT22;5318;50.844;4.272;2022-12-18T10:52:20;3.10;99.90
10541;DHT22;5318;50.844;4.272;2022-12-18T10:54:57;3.00;99.90
10541;DHT22;5318;50.844;4.272;2022-12-18T10:57:33;3.00;99.90
10541;DHT22;5318;50.844;4.272;2022-12-18T11:03:00;3.20;99.90
10541;DHT22;5318;50.844;4.272;2022-12-18T11:05:37;3.30;99.90
10541;DHT22;5318;50.844;4.272;2022-12-18T11:08:21;3.30;99.90
10541;DHT22;5318;50.844;4.272;2022-12-18T11:10:57;3.30;99.90
10541;DHT22;5318;50.844;4.272;2022-12-18T11:13:35;3.30;99.90
10541;DHT22;5318;50.844;4.272;2022-12-18T11:16:18;3.30;99.90
10541;DHT22;5318;50.844;4.272;2022-12-18T11:18:49;3.30;99.90
10541;DHT22;5318;50.844;4.272;2022-12-18T11:21:27;3.30;99.90
10541;DHT22;5318;50.844;4.272;2022-12-18T11:24:04;3.20;99.90
10541;DHT22;5318;50.844;4.272;2022-12-18T11:26:41;3.20;99.90
10541;DHT22;5318;50.844;4.272;2022-12-18T11:29:22;3.20;99.90
10541;DHT22;5318;50.844;4.272;2022-12-18T11:32:20;3.10;99.90
10541;DHT22;5318;50.844;4.272;2022-12-18T11:34:32;3.10;99.90
10541;DHT22;5318;50.844;4.272;2022-12-18T11:37:09;3.20;99.90
10541;DHT22;5318;50.844;4.272;2022-12-18T11:42:34;3.20;99.90
10541;DHT22;5318;50.844;4.272;2022-12-18T11:47:59;3.30;99.90
10541;DHT22;5318;50.844;4.272;2022-12-18T11:53:13;3.10;99.90
10541;DHT22;5318;50.844;4.272;2022-12-18T11:55:53;3.00;99.90
10541;DHT22;5318;50.844;4.272;2022-12-18T11:58:52;3.10;99.90
10541;DHT22;5318;50.844;4.272;2022-12-18T12:01:39;3.30;99.90
10541;DHT22;5318;50.844;4.272;2022-12-18T12:18:50;3.60;99.90
10541;DHT22;5318;50.844;4.272;2022-12-18T12:21:34;3.50;99.90
10541;DHT22;5318;50.844;4.272;2022-12-18T12:27:08;3.70;99.90
10541;DHT22;5318;50.844;4.272;2022-12-18T12:30:20;3.50;99.90
10541;DHT22;5318;50.844;4.272;2022-12-18T12:36:05;3.50;99.90
10541;DHT22;5318;50.844;4.272;2022-12-18T12:38:43;3.30;99.90
10541;DHT22;5318;50.844;4.272;2022-12-18T12:41:23;3.30;99.90
10541;DHT22;5318;50.844;4.272;2022-12-18T12:43:56;3.30;99.90
10541;DHT22;5318;50.844;4.272;2022-12-18T12:46:33;3.30;99.90
10541;DHT22;5318;50.844;4.272;2022-12-18T12:49:15;3.20;99.90
10541;DHT22;5318;50.844;4.272;2022-12-18T12:52:04;3.20;99.90
10541;DHT22;5318;50.844;4.272;2022-12-18T12:54:37;3.10;99.90
10541;DHT22;5318;50.844;4.272;2022-12-18T12:57:41;3.30;99.90
10541;DHT22;5318;50.844;4.272;2022-12-18T13:00:18;3.40;99.90
10541;DHT22;5318;50.844;4.272;2022-12-18T13:05:49;3.40;99.90
10541;DHT22;5318;50.844;4.272;2022-12-18T13:08:28;3.50;99.90
10541;DHT22;5318;50.844;4.272;2022-12-18T13:11:04;3.40;99.90
10541;DHT22;5318;50.844;4.272;2022-12-18T13:13:51;3.40;99.90
10541;DHT22;5318;50.844;4.272;2022-12-18T13:16:27;3.40;99.90
10541;DHT22;5318;50.844;4.272;2022-12-18T13:19:04;3.40;99.90
10541;DHT22;5318;50.844;4.272;2022-12-18T13:21:40;3.40;99.90
10541;DHT22;5318;50.844;4.272;2022-12-18T13:24:27;3.40;99.90
10541;DHT22;5318;50.844;4.272;2022-12-18T13:27:26;3.30;99.90
10541;DHT22;5318;50.844;4.272;2022-12-18T13:29:45;3.50;99.90
10541;DHT22;5318;50.844;4.272;2022-12-18T13:32:25;3.40;99.90
10541;DHT22;5318;50.844;4.272;2022-12-18T13:37:59;3.20;99.90
10541;DHT22;5318;50.844;4.272;2022-12-18T13:46:01;3.30;99.90
10541;DHT22;5318;50.844;4.272;2022-12-18T13:48:38;3.00;99.90
10541;DHT22;5318;50.844;4.272;2022-12-18T13:51:15;3.00;99.90
10541;DHT22;5318;50.844;4.272;2022-12-18T13:53:53;3.00;99.90
10541;DHT22;5318;50.844;4.272;2022-12-18T13:56:29;3.10;99.90
10541;DHT22;5318;50.844;4.272;2022-12-18T13:59:20;3.10;99.90
10541;DHT22;5318;50.844;4.272;2022-12-18T14:01:56;3.00;99.90
10541;DHT22;5318;50.844;4.272;2022-12-18T14:04:33;3.00;99.90
10541;DHT22;5318;50.844;4.272;2022-12-18T14:07:34;3.10;99.90
10541;DHT22;5318;50.844;4.272;2022-12-18T14:09:50;3.10;99.90
10541;DHT22;5318;50.844;4.272;2022-12-18T14:12:26;3.30;99.90
10541;DHT22;5318;50.844;4.272;2022-12-18T14:15:03;3.40;99.90
10541;DHT22;5318;50.844;4.272;2022-12-18T14:17:39;3.40;99.90
10541;DHT22;5318;50.844;4.272;2022-12-18T14:20:15;3.40;99.90
10541;DHT22;5318;50.844;4.272;2022-12-18T14:22:52;3.30;99.90
10541;DHT22;5318;50.844;4.272;2022-12-18T14:25:29;3.10;99.90
10541;DHT22;5318;50.844;4.272;2022-12-18T14:28:11;3.10;99.90
10541;DHT22;5318;50.844;4.272;2022-12-18T14:30:45;2.90;99.90
10541;DHT22;5318;50.844;4.272;2022-12-18T14:33:23;2.90;99.90
10541;DHT22;5318;50.844;4.272;2022-12-18T14:36:00;3.00;99.90
10541;DHT22;5318;50.844;4.272;2022-12-18T14:38:37;3.10;99.90
10541;DHT22;5318;50.844;4.272;2022-12-18T14:41:12;3.10;99.90
10541;DHT22;5318;50.844;4.272;2022-12-18T14:43:50;3.30;99.90
10541;DHT22;5318;50.844;4.272;2022-12-18T14:46:30;3.20;99.90
10541;DHT22;5318;50.844;4.272;2022-12-18T14:49:30;3.20;99.90
10541;DHT22;5318;50.844;4.272;2022-12-18T14:52:06;3.00;99.90
10541;DHT22;5318;50.844;4.272;2022-12-18T14:54:45;3.00;99.90
10541;DHT22;5318;50.844;4.272;2022-12-18T14:57:25;2.90;99.90
10541;DHT22;5318;50.844;4.272;2022-12-18T15:00:06;2.80;99.90
10541;DHT22;5318;50.844;4.272;2022-12-18T15:02:42;2.70;99.90
10541;DHT22;5318;50.844;4.272;2022-12-18T15:05:28;2.80;99.90
10541;DHT22;5318;50.844;4.272;2022-12-18T15:08:24;2.80;99.90
10541;DHT22;5318;50.844;4.272;2022-12-18T15:10:46;2.70;99.90
10541;DHT22;5318;50.844;4.272;2022-12-18T15:13:21;2.70;99.90
10541;DHT22;5318;50.844;4.272;2022-12-18T15:15:58;2.80;99.90
10541;DHT22;5318;50.844;4.272;2022-12-18T15:18:34;2.90;99.90
10541;DHT22;5318;50.844;4.272;2022-12-18T15:21:11;3.00;99.90
10541;DHT22;5318;50.844;4.272;2022-12-18T15:23:48;2.90;99.90
10541;DHT22;5318;50.844;4.272;2022-12-18T15:26:24;3.00;99.90
10541;DHT22;5318;50.844;4.272;2022-12-18T15:29:00;3.00;99.90
10541;DHT22;5318;50.844;4.272;2022-12-18T15:31:37;3.00;99.90
10541;DHT22;5318;50.844;4.272;2022-12-18T15:34:18;3.00;99.90
10541;DHT22;5318;50.844;4.272;2022-12-18T15:36:50;2.90;99.90
10541;DHT22;5318;50.844;4.272;2022-12-18T15:39:27;3.00;99.90
10541;DHT22;5318;50.844;4.272;2022-12-18T15:42:07;2.90;99.90
10541;DHT22;5318;50.844;4.272;2022-12-18T15:44:42;2.90;99.90
10541;DHT22;5318;50.844;4.272;2022-12-18T15:47:18;2.90;99.90
10541;DHT22;5318;50.844;4.272;2022-12-18T15:49:55;3.10;99.90
10541;DHT22;5318;50.844;4.272;2022-12-18T15:52:34;3.00;99.90
10541;DHT22;5318;50.844;4.272;2022-12-18T15:55:16;3.00;99.90
10541;DHT22;5318;50.844;4.272;2022-12-18T15:57:52;3.30;99.90
10541;DHT22;5318;50.844;4.272;2022-12-18T16:00:29;3.30;99.90
10541;DHT22;5318;50.844;4.272;2022-12-18T16:03:05;3.20;99.90
10541;DHT22;5318;50.844;4.272;2022-12-18T16:05:42;3.20;99.90
10541;DHT22;5318;50.844;4.272;2022-12-18T16:08:18;3.10;99.90
10541;DHT22;5318;50.844;4.272;2022-12-18T16:10:56;3.10;99.90
10541;DHT22;5318;50.844;4.272;2022-12-18T16:13:32;3.00;99.90
10541;DHT22;5318;50.844;4.272;2022-12-18T16:16:09;3.10;99.90
10541;DHT22;5318;50.844;4.272;2022-12-18T16:18:45;3.10;99.90
10541;DHT22;5318;50.844;4.272;2022-12-18T16:21:22;3.10;99.90
10541;DHT22;5318;50.844;4.272;2022-12-18T16:23:59;3.00;99.90
10541;DHT22;5318;50.844;4.272;2022-12-18T16:26:35;3.00;99.90
10541;DHT22;5318;50.844;4.272;2022-12-18T16:29:12;3.00;99.90
10541;DHT22;5318;50.844;4.272;2022-12-18T16:31:48;3.00;99.90
10541;DHT22;5318;50.844;4.272;2022-12-18T16:34:29;3.00;99.90
10541;DHT22;5318;50.844;4.272;2022-12-18T16:37:05;2.90;99.90
10541;DHT22;5318;50.844;4.272;2022-12-18T16:39:41;3.00;99.90
10541;DHT22;5318;50.844;4.272;2022-12-18T16:42:18;3.00;99.90
10541;DHT22;5318;50.844;4.272;2022-12-18T16:44:54;3.00;99.90
10541;DHT22;5318;50.844;4.272;2022-12-18T16:47:31;3.00;99.90
10541;DHT22;5318;50.844;4.272;2022-12-18T16:50:08;3.00;99.90
10541;DHT22;5318;50.844;4.272;2022-12-18T16:52:44;3.00;99.90
10541;DHT22;5318;50.844;4.272;2022-12-18T16:55:21;3.00;99.90
10541;DHT22;5318;50.844;4.272;2022-12-18T16:57:57;3.00;99.90
10541;DHT22;5318;50.844;4.272;2022-12-18T17:00:34;3.00;99.90
10541;DHT22;5318;50.844;4.272;2022-12-18T17:03:10;2.90;99.90
10541;DHT22;5318;50.844;4.272;2022-12-18T17:05:48;3.00;99.90
10541;DHT22;5318;50.844;4.272;2022-12-18T17:08:24;3.00;99.90
10541;DHT22;5318;50.844;4.272;2022-12-18T17:11:06;3.00;99.90
10541;DHT22;5318;50.844;4.272;2022-12-18T17:13:43;3.10;99.90
10541;DHT22;5318;50.844;4.272;2022-12-18T17:16:20;3.10;99.90
10541;DHT22;5318;50.844;4.272;2022-12-18T17:18:56;3.00;99.90
10541;DHT22;5318;50.844;4.272;2022-12-18T17:21:33;3.10;99.90
10541;DHT22;5318;50.844;4.272;2022-12-18T17:24:09;3.20;99.90
10541;DHT22;5318;50.844;4.272;2022-12-18T17:26:46;3.20;99.90
10541;DHT22;5318;50.844;4.272;2022-12-18T17:29:23;3.10;99.90
10541;DHT22;5318;50.844;4.272;2022-12-18T17:32:00;3.30;99.90
10541;DHT22;5318;50.844;4.272;2022-12-18T17:34:36;3.40;99.90
10541;DHT22;5318;50.844;4.272;2022-12-18T17:37:13;3.40;99.90
10541;DHT22;5318;50.844;4.272;2022-12-18T17:39:49;3.50;99.90
10541;DHT22;5318;50.844;4.272;2022-12-18T17:42:26;3.40;99.90
10541;DHT22;5318;50.844;4.272;2022-12-18T17:45:03;3.40;99.90
10541;DHT22;5318;50.844;4.272;2022-12-18T17:47:59;3.40;99.90
10541;DHT22;5318;50.844;4.272;2022-12-18T17:50:35;3.30;99.90
10541;DHT22;5318;50.844;4.272;2022-12-18T17:53:12;3.20;99.90
10541;DHT22;5318;50.844;4.272;2022-12-18T17:55:55;3.20;99.90
10541;DHT22;5318;50.844;4.272;2022-12-18T17:58:32;3.20;99.90
10541;DHT22;5318;50.844;4.272;2022-12-18T18:01:08;3.20;99.90
10541;DHT22;5318;50.844;4.272;2022-12-18T18:03:45;3.20;99.90
10541;DHT22;5318;50.844;4.272;2022-12-18T18:06:21;3.10;99.90
10541;DHT22;5318;50.844;4.272;2022-12-18T18:08:58;3.00;99.90
10541;DHT22;5318;50.844;4.272;2022-12-18T18:11:35;3.20;99.90
10541;DHT22;5318;50.844;4.272;2022-12-18T18:14:16;3.20;99.90
10541;DHT22;5318;50.844;4.272;2022-12-18T18:16:52;3.00;99.90
10541;DHT22;5318;50.844;4.272;2022-12-18T18:19:28;3.00;99.90
10541;DHT22;5318;50.844;4.272;2022-12-18T18:22:05;2.90;99.90
10541;DHT22;5318;50.844;4.272;2022-12-18T18:24:42;3.00;99.90
10541;DHT22;5318;50.844;4.272;2022-12-18T18:27:18;3.10;99.90
10541;DHT22;5318;50.844;4.272;2022-12-18T18:29:55;3.20;99.90
10541;DHT22;5318;50.844;4.272;2022-12-18T18:32:31;3.10;99.90
10541;DHT22;5318;50.844;4.272;2022-12-18T18:35:08;3.10;99.90
10541;DHT22;5318;50.844;4.272;2022-12-18T18:37:46;3.00;99.90